createdAt,value
2017-06-09T00:15:00.000Z,16.5
2017-06-09T00:31:44.000Z,16.5
2017-06-09T00:48:29.000Z,16.5
2017-06-09T01:05:12.000Z,16.2
2017-06-09T01:21:55.000Z,16.2
2017-06-09T01:38:40.000Z,15.8
2017-06-09T01:55:23.000Z,15.8
2017-06-09T02:12:06.000Z,15.8
2017-06-09T02:28:50.000Z,15.5
2017-06-09T02:45:33.000Z,15.5
2017-06-09T03:02:16.000Z,15.5
2017-06-09T03:18:59.000Z,15.5
2017-06-09T03:35:42.000Z,15.2
2017-06-09T03:52:25.000Z,15.2
2017-06-09T04:09:08.000Z,15.5
2017-06-09T04:25:52.000Z,15.8
2017-06-09T04:35:54.000Z,16.5
2017-06-09T04:45:57.000Z,17.1
2017-06-09T05:02:41.000Z,17.8
2017-06-09T05:19:26.000Z,18.1
2017-06-09T05:29:30.000Z,18.7
2017-06-09T05:46:16.000Z,18.7
2017-06-09T06:03:02.000Z,18.7
2017-06-09T06:19:48.000Z,19
2017-06-09T06:36:34.000Z,19.4
2017-06-09T06:43:17.000Z,20
2017-06-09T07:00:04.000Z,20
2017-06-09T07:16:52.000Z,20
2017-06-09T07:23:34.000Z,20.6
2017-06-09T07:33:39.000Z,21.3
2017-06-09T07:50:27.000Z,21.3
2017-06-09T08:07:15.000Z,21.3
2017-06-09T08:17:20.000Z,21.9
2017-06-09T08:34:09.000Z,21.9
2017-06-09T08:50:59.000Z,21.6
2017-06-09T09:07:47.000Z,21.6
2017-06-09T09:24:35.000Z,21.3
2017-06-09T09:41:23.000Z,21
2017-06-09T09:58:11.000Z,20.6
2017-06-09T10:14:58.000Z,20
2017-06-09T10:28:23.000Z,19.4
2017-06-09T10:38:27.000Z,18.7
2017-06-09T10:51:52.000Z,18.1
2017-06-09T11:05:15.000Z,17.4
2017-06-09T11:22:00.000Z,17.1
2017-06-09T11:38:45.000Z,17.1
2017-06-09T11:55:29.000Z,17.1
2017-06-09T12:05:32.000Z,17.8
2017-06-09T12:32:19.000Z,19
2017-06-09T12:49:06.000Z,19.4
2017-06-09T13:05:52.000Z,19
2017-06-09T13:15:56.000Z,19.7
2017-06-09T13:32:43.000Z,20.6
2017-06-09T13:49:31.000Z,20.6
2017-06-09T13:59:35.000Z,21
2017-06-09T14:13:01.000Z,21
2017-06-09T14:29:50.000Z,21.3
2017-06-09T14:46:38.000Z,21.3
2017-06-09T15:03:26.000Z,21.3
2017-06-09T15:20:13.000Z,21.3
2017-06-09T15:37:02.000Z,21.3
2017-06-09T15:47:07.000Z,21.6
2017-06-09T16:03:55.000Z,22.2
2017-06-09T16:17:23.000Z,22.6
2017-06-09T16:27:28.000Z,23.2
2017-06-09T16:37:34.000Z,23.8
2017-06-09T16:47:40.000Z,24.5
2017-06-09T17:04:31.000Z,24.8
2017-06-09T17:21:24.000Z,25.1
2017-06-09T17:24:46.000Z,25.1
2017-06-09T17:34:53.000Z,24.5
2017-06-09T17:45:00.000Z,25.1
2017-06-09T17:51:45.000Z,24.2
2017-06-09T17:55:07.000Z,23.5
2017-06-09T18:01:52.000Z,22.6
2017-06-09T18:08:35.000Z,21.9
2017-06-09T18:15:18.000Z,21.3
2017-06-09T18:25:23.000Z,20.6
2017-06-09T18:42:10.000Z,20
2017-06-09T18:58:57.000Z,19.4
2017-06-09T19:15:43.000Z,19
2017-06-09T19:29:08.000Z,18.4
2017-06-09T19:45:53.000Z,18.1
2017-06-09T20:02:37.000Z,17.8
2017-06-09T20:19:23.000Z,17.4
2017-06-09T20:36:07.000Z,16.8
2017-06-09T20:52:50.000Z,16.8
2017-06-09T21:09:35.000Z,16.5
2017-06-09T21:26:18.000Z,16.2
2017-06-09T21:43:01.000Z,15.8
2017-06-09T21:59:45.000Z,15.8
2017-06-09T22:16:28.000Z,15.8
2017-06-09T22:33:11.000Z,15.8
2017-06-09T22:49:54.000Z,15.5
2017-06-09T23:06:38.000Z,15.2
2017-06-09T23:23:21.000Z,14.9
2017-06-09T23:40:02.000Z,14.9
2017-06-09T23:56:46.000Z,14.6
